sensor_id;sensor_type;location;lat;lon;timestamp;P1;durP1;ratioP1;P2;durP2;ratioP2
71814;SDS011;59659;41.520;23.794;2022-08-19T00:00:19;6.80;;;5.17;;
71814;SDS011;59659;41.520;23.794;2022-08-19T00:01:31;8.23;;;5.13;;
71814;SDS011;59659;41.520;23.794;2022-08-19T00:02:48;10.27;;;6.10;;
71814;SDS011;59659;41.520;23.794;2022-08-19T00:04:02;8.53;;;5.50;;
71814;SDS011;59659;41.520;23.794;2022-08-19T00:05:14;8.20;;;5.27;;
71814;SDS011;59659;41.520;23.794;2022-08-19T00:06:27;8.33;;;6.00;;
71814;SDS011;59659;41.520;23.794;2022-08-19T00:07:38;8.23;;;5.10;;
71814;SDS011;59659;41.520;23.794;2022-08-19T00:08:50;8.90;;;5.43;;
71814;SDS011;59659;41.520;23.794;2022-08-19T00:10:03;9.33;;;4.50;;
71814;SDS011;59659;41.520;23.794;2022-08-19T00:11:15;9.17;;;5.43;;
71814;SDS011;59659;41.520;23.794;2022-08-19T00:12:35;9.93;;;5.17;;
71814;SDS011;59659;41.520;23.794;2022-08-19T00:13:57;10.00;;;4.87;;
71814;SDS011;59659;41.520;23.794;2022-08-19T00:15:10;8.00;;;4.87;;
71814;SDS011;59659;41.520;23.794;2022-08-19T00:16:25;7.20;;;4.67;;
71814;SDS011;59659;41.520;23.794;2022-08-19T00:17:38;6.60;;;4.90;;
71814;SDS011;59659;41.520;23.794;2022-08-19T00:18:53;7.07;;;4.97;;
71814;SDS011;59659;41.520;23.794;2022-08-19T00:20:05;9.33;;;5.37;;
71814;SDS011;59659;41.520;23.794;2022-08-19T00:21:17;6.63;;;4.97;;
71814;SDS011;59659;41.520;23.794;2022-08-19T00:22:29;9.07;;;5.17;;
71814;SDS011;59659;41.520;23.794;2022-08-19T00:23:41;8.03;;;5.83;;
71814;SDS011;59659;41.520;23.794;2022-08-19T00:24:54;8.90;;;5.87;;
71814;SDS011;59659;41.520;23.794;2022-08-19T00:26:07;7.50;;;4.80;;
71814;SDS011;59659;41.520;23.794;2022-08-19T00:27:19;7.30;;;4.93;;
71814;SDS011;59659;41.520;23.794;2022-08-19T00:28:37;7.80;;;5.37;;
71814;SDS011;59659;41.520;23.794;2022-08-19T00:29:48;7.97;;;6.13;;
71814;SDS011;59659;41.520;23.794;2022-08-19T00:31:03;10.67;;;6.07;;
71814;SDS011;59659;41.520;23.794;2022-08-19T00:32:15;7.93;;;5.57;;
71814;SDS011;59659;41.520;23.794;2022-08-19T00:33:29;8.37;;;5.60;;
71814;SDS011;59659;41.520;23.794;2022-08-19T00:34:43;7.67;;;5.63;;
71814;SDS011;59659;41.520;23.794;2022-08-19T00:35:55;7.50;;;5.50;;
71814;SDS011;59659;41.520;23.794;2022-08-19T00:37:06;9.73;;;5.90;;
71814;SDS011;59659;41.520;23.794;2022-08-19T00:38:18;9.60;;;6.10;;
71814;SDS011;59659;41.520;23.794;2022-08-19T00:39:48;8.00;;;6.03;;
71814;SDS011;59659;41.520;23.794;2022-08-19T00:41:00;8.20;;;5.40;;
71814;SDS011;59659;41.520;23.794;2022-08-19T00:42:11;6.13;;;4.77;;
71814;SDS011;59659;41.520;23.794;2022-08-19T00:43:27;8.63;;;5.60;;
71814;SDS011;59659;41.520;23.794;2022-08-19T00:44:39;10.37;;;6.53;;
71814;SDS011;59659;41.520;23.794;2022-08-19T00:45:50;7.33;;;5.60;;
71814;SDS011;59659;41.520;23.794;2022-08-19T00:47:02;8.30;;;5.63;;
71814;SDS011;59659;41.520;23.794;2022-08-19T00:48:19;10.23;;;6.70;;
71814;SDS011;59659;41.520;23.794;2022-08-19T00:49:41;11.17;;;6.47;;
71814;SDS011;59659;41.520;23.794;2022-08-19T00:50:54;12.57;;;6.43;;
71814;SDS011;59659;41.520;23.794;2022-08-19T00:52:11;7.77;;;5.73;;
71814;SDS011;59659;41.520;23.794;2022-08-19T00:53:24;10.07;;;5.50;;
71814;SDS011;59659;41.520;23.794;2022-08-19T00:54:38;7.83;;;5.93;;
71814;SDS011;59659;41.520;23.794;2022-08-19T00:55:51;7.63;;;5.23;;
71814;SDS011;59659;41.520;23.794;2022-08-19T00:57:04;8.10;;;5.43;;
71814;SDS011;59659;41.520;23.794;2022-08-19T00:58:17;8.37;;;5.60;;
71814;SDS011;59659;41.520;23.794;2022-08-19T00:59:30;8.43;;;5.33;;
71814;SDS011;59659;41.520;23.794;2022-08-19T01:01:03;7.67;;;5.20;;
71814;SDS011;59659;41.520;23.794;2022-08-19T01:02:15;10.60;;;5.40;;
71814;SDS011;59659;41.520;23.794;2022-08-19T01:03:27;7.00;;;5.20;;
71814;SDS011;59659;41.520;23.794;2022-08-19T01:04:54;9.20;;;5.30;;
71814;SDS011;59659;41.520;23.794;2022-08-19T01:06:05;9.23;;;5.40;;
71814;SDS011;59659;41.520;23.794;2022-08-19T01:07:17;8.27;;;5.10;;
71814;SDS011;59659;41.520;23.794;2022-08-19T01:08:30;6.00;;;4.90;;
71814;SDS011;59659;41.520;23.794;2022-08-19T01:09:41;7.40;;;5.03;;
71814;SDS011;59659;41.520;23.794;2022-08-19T01:10:54;9.27;;;5.47;;
71814;SDS011;59659;41.520;23.794;2022-08-19T01:12:06;7.67;;;5.23;;
71814;SDS011;59659;41.520;23.794;2022-08-19T01:13:19;7.17;;;5.07;;
71814;SDS011;59659;41.520;23.794;2022-08-19T01:14:31;8.03;;;5.67;;
71814;SDS011;59659;41.520;23.794;2022-08-19T01:15:53;10.83;;;4.97;;
71814;SDS011;59659;41.520;23.794;2022-08-19T01:17:07;6.97;;;4.77;;
71814;SDS011;59659;41.520;23.794;2022-08-19T01:18:20;6.97;;;5.40;;
71814;SDS011;59659;41.520;23.794;2022-08-19T01:19:37;7.20;;;4.93;;
71814;SDS011;59659;41.520;23.794;2022-08-19T01:20:55;9.23;;;4.73;;
71814;SDS011;59659;41.520;23.794;2022-08-19T01:23:42;11.23;;;5.50;;
71814;SDS011;59659;41.520;23.794;2022-08-19T01:24:54;7.57;;;5.03;;
71814;SDS011;59659;41.520;23.794;2022-08-19T01:26:06;6.77;;;4.77;;
71814;SDS011;59659;41.520;23.794;2022-08-19T01:27:18;8.00;;;5.97;;
71814;SDS011;59659;41.520;23.794;2022-08-19T01:28:30;10.93;;;5.57;;
71814;SDS011;59659;41.520;23.794;2022-08-19T01:29:44;10.80;;;6.17;;
71814;SDS011;59659;41.520;23.794;2022-08-19T01:30:56;9.37;;;5.80;;
71814;SDS011;59659;41.520;23.794;2022-08-19T01:32:08;8.53;;;5.80;;
71814;SDS011;59659;41.520;23.794;2022-08-19T01:33:40;8.50;;;5.90;;
71814;SDS011;59659;41.520;23.794;2022-08-19T01:34:52;11.53;;;6.17;;
71814;SDS011;59659;41.520;23.794;2022-08-19T01:36:07;9.20;;;5.20;;
71814;SDS011;59659;41.520;23.794;2022-08-19T01:37:19;9.77;;;6.60;;
71814;SDS011;59659;41.520;23.794;2022-08-19T01:38:38;7.97;;;5.43;;
71814;SDS011;59659;41.520;23.794;2022-08-19T01:39:54;8.67;;;5.70;;
71814;SDS011;59659;41.520;23.794;2022-08-19T01:41:06;11.53;;;5.83;;
71814;SDS011;59659;41.520;23.794;2022-08-19T01:42:21;8.40;;;5.43;;
71814;SDS011;59659;41.520;23.794;2022-08-19T01:43:40;9.70;;;6.03;;
71814;SDS011;59659;41.520;23.794;2022-08-19T01:45:12;9.20;;;5.67;;
71814;SDS011;59659;41.520;23.794;2022-08-19T01:46:23;7.97;;;6.03;;
71814;SDS011;59659;41.520;23.794;2022-08-19T01:47:35;7.33;;;5.27;;
71814;SDS011;59659;41.520;23.794;2022-08-19T01:48:47;6.90;;;4.60;;
71814;SDS011;59659;41.520;23.794;2022-08-19T01:49:59;10.07;;;6.00;;
71814;SDS011;59659;41.520;23.794;2022-08-19T01:51:11;8.93;;;5.73;;
71814;SDS011;59659;41.520;23.794;2022-08-19T01:52:22;9.80;;;5.43;;
71814;SDS011;59659;41.520;23.794;2022-08-19T01:53:34;9.13;;;6.27;;
71814;SDS011;59659;41.520;23.794;2022-08-19T01:54:46;7.53;;;5.93;;
71814;SDS011;59659;41.520;23.794;2022-08-19T01:55:58;10.33;;;6.70;;
71814;SDS011;59659;41.520;23.794;2022-08-19T01:57:10;12.13;;;6.53;;
71814;SDS011;59659;41.520;23.794;2022-08-19T01:58:24;8.27;;;5.40;;
71814;SDS011;59659;41.520;23.794;2022-08-19T01:59:37;9.13;;;5.97;;
71814;SDS011;59659;41.520;23.794;2022-08-19T02:00:50;8.10;;;6.10;;
71814;SDS011;59659;41.520;23.794;2022-08-19T02:02:02;9.10;;;6.23;;
71814;SDS011;59659;41.520;23.794;2022-08-19T02:03:14;7.73;;;5.60;;
71814;SDS011;59659;41.520;23.794;2022-08-19T02:04:27;7.70;;;5.57;;
71814;SDS011;59659;41.520;23.794;2022-08-19T02:05:39;11.00;;;6.33;;
71814;SDS011;59659;41.520;23.794;2022-08-19T02:06:51;10.83;;;6.90;;
71814;SDS011;59659;41.520;23.794;2022-08-19T02:08:02;9.13;;;6.50;;
71814;SDS011;59659;41.520;23.794;2022-08-19T02:09:14;7.87;;;5.60;;
71814;SDS011;59659;41.520;23.794;2022-08-19T02:10:25;10.07;;;6.33;;
71814;SDS011;59659;41.520;23.794;2022-08-19T02:11:37;7.77;;;5.83;;
71814;SDS011;59659;41.520;23.794;2022-08-19T02:12:49;9.50;;;6.37;;
71814;SDS011;59659;41.520;23.794;2022-08-19T02:14:03;10.30;;;5.90;;
71814;SDS011;59659;41.520;23.794;2022-08-19T02:15:17;10.40;;;6.23;;
71814;SDS011;59659;41.520;23.794;2022-08-19T02:16:30;9.93;;;6.40;;
71814;SDS011;59659;41.520;23.794;2022-08-19T02:17:44;8.87;;;5.67;;
71814;SDS011;59659;41.520;23.794;2022-08-19T02:18:56;8.30;;;5.80;;
71814;SDS011;59659;41.520;23.794;2022-08-19T02:20:08;6.87;;;5.13;;
71814;SDS011;59659;41.520;23.794;2022-08-19T02:21:20;10.43;;;5.43;;
71814;SDS011;59659;41.520;23.794;2022-08-19T02:22:32;8.47;;;5.80;;
71814;SDS011;59659;41.520;23.794;2022-08-19T02:23:46;9.13;;;5.53;;
71814;SDS011;59659;41.520;23.794;2022-08-19T02:24:57;9.40;;;5.97;;
71814;SDS011;59659;41.520;23.794;2022-08-19T02:26:10;8.23;;;5.40;;
71814;SDS011;59659;41.520;23.794;2022-08-19T02:27:22;9.27;;;5.40;;
71814;SDS011;59659;41.520;23.794;2022-08-19T02:28:33;6.87;;;5.00;;
71814;SDS011;59659;41.520;23.794;2022-08-19T02:29:46;8.10;;;5.37;;
71814;SDS011;59659;41.520;23.794;2022-08-19T02:31:00;9.93;;;5.83;;
71814;SDS011;59659;41.520;23.794;2022-08-19T02:32:13;7.20;;;5.17;;
71814;SDS011;59659;41.520;23.794;2022-08-19T02:33:25;7.23;;;5.43;;
71814;SDS011;59659;41.520;23.794;2022-08-19T02:34:36;7.30;;;4.80;;
71814;SDS011;59659;41.520;23.794;2022-08-19T02:35:48;11.60;;;5.53;;
71814;SDS011;59659;41.520;23.794;2022-08-19T02:36:59;6.73;;;5.10;;
71814;SDS011;59659;41.520;23.794;2022-08-19T02:38:14;7.27;;;5.40;;
71814;SDS011;59659;41.520;23.794;2022-08-19T02:39:37;9.23;;;4.90;;
71814;SDS011;59659;41.520;23.794;2022-08-19T02:40:50;8.17;;;5.97;;
71814;SDS011;59659;41.520;23.794;2022-08-19T02:42:03;12.40;;;5.17;;
71814;SDS011;59659;41.520;23.794;2022-08-19T02:43:14;7.43;;;4.87;;
71814;SDS011;59659;41.520;23.794;2022-08-19T02:44:26;8.30;;;5.50;;
71814;SDS011;59659;41.520;23.794;2022-08-19T02:45:42;11.00;;;5.77;;
71814;SDS011;59659;41.520;23.794;2022-08-19T02:46:53;8.43;;;5.40;;
71814;SDS011;59659;41.520;23.794;2022-08-19T02:48:06;9.03;;;5.63;;
71814;SDS011;59659;41.520;23.794;2022-08-19T02:49:33;8.47;;;5.00;;
71814;SDS011;59659;41.520;23.794;2022-08-19T02:50:45;9.37;;;6.03;;
71814;SDS011;59659;41.520;23.794;2022-08-19T02:52:03;8.87;;;5.10;;
71814;SDS011;59659;41.520;23.794;2022-08-19T02:53:15;7.83;;;5.43;;
71814;SDS011;59659;41.520;23.794;2022-08-19T02:54:26;7.17;;;5.17;;
71814;SDS011;59659;41.520;23.794;2022-08-19T02:55:42;8.50;;;5.30;;
71814;SDS011;59659;41.520;23.794;2022-08-19T02:56:56;6.33;;;4.90;;
71814;SDS011;59659;41.520;23.794;2022-08-19T02:58:08;7.57;;;4.97;;
71814;SDS011;59659;41.520;23.794;2022-08-19T02:59:19;8.20;;;5.40;;
71814;SDS011;59659;41.520;23.794;2022-08-19T03:00:33;9.33;;;5.40;;
71814;SDS011;59659;41.520;23.794;2022-08-19T03:01:52;7.77;;;5.57;;
71814;SDS011;59659;41.520;23.794;2022-08-19T03:03:03;10.77;;;5.70;;
71814;SDS011;59659;41.520;23.794;2022-08-19T03:04:18;13.40;;;6.17;;
71814;SDS011;59659;41.520;23.794;2022-08-19T03:05:30;9.17;;;5.97;;
71814;SDS011;59659;41.520;23.794;2022-08-19T03:06:58;7.03;;;5.33;;
71814;SDS011;59659;41.520;23.794;2022-08-19T03:08:21;8.20;;;5.30;;
71814;SDS011;59659;41.520;23.794;2022-08-19T03:09:32;9.27;;;5.00;;
71814;SDS011;59659;41.520;23.794;2022-08-19T03:10:46;6.90;;;4.50;;
71814;SDS011;59659;41.520;23.794;2022-08-19T03:11:58;8.83;;;5.23;;
71814;SDS011;59659;41.520;23.794;2022-08-19T03:13:10;10.83;;;5.73;;
71814;SDS011;59659;41.520;23.794;2022-08-19T03:14:22;8.37;;;5.43;;
71814;SDS011;59659;41.520;23.794;2022-08-19T03:15:34;8.70;;;5.40;;
71814;SDS011;59659;41.520;23.794;2022-08-19T03:16:47;9.90;;;5.73;;
71814;SDS011;59659;41.520;23.794;2022-08-19T03:17:59;6.83;;;5.00;;
71814;SDS011;59659;41.520;23.794;2022-08-19T03:19:12;5.77;;;4.70;;
71814;SDS011;59659;41.520;23.794;2022-08-19T03:20:24;7.70;;;5.47;;
71814;SDS011;59659;41.520;23.794;2022-08-19T03:21:36;8.87;;;5.97;;
71814;SDS011;59659;41.520;23.794;2022-08-19T03:22:48;8.00;;;4.97;;
71814;SDS011;59659;41.520;23.794;2022-08-19T03:24:01;6.63;;;4.90;;
71814;SDS011;59659;41.520;23.794;2022-08-19T03:25:13;7.47;;;4.77;;
71814;SDS011;59659;41.520;23.794;2022-08-19T03:26:26;6.97;;;4.50;;
71814;SDS011;59659;41.520;23.794;2022-08-19T03:27:38;7.37;;;4.73;;
71814;SDS011;59659;41.520;23.794;2022-08-19T03:28:50;7.93;;;4.80;;
71814;SDS011;59659;41.520;23.794;2022-08-19T03:30:09;9.53;;;5.43;;
71814;SDS011;59659;41.520;23.794;2022-08-19T03:31:22;7.57;;;5.07;;
71814;SDS011;59659;41.520;23.794;2022-08-19T03:32:54;8.70;;;4.37;;
71814;SDS011;59659;41.520;23.794;2022-08-19T03:34:07;8.60;;;4.87;;
71814;SDS011;59659;41.520;23.794;2022-08-19T03:35:19;7.03;;;4.70;;
71814;SDS011;59659;41.520;23.794;2022-08-19T03:36:31;9.97;;;5.17;;
71814;SDS011;59659;41.520;23.794;2022-08-19T03:37:42;6.83;;;5.07;;
71814;SDS011;59659;41.520;23.794;2022-08-19T03:38:55;7.20;;;4.80;;
71814;SDS011;59659;41.520;23.794;2022-08-19T03:40:10;7.30;;;4.73;;
71814;SDS011;59659;41.520;23.794;2022-08-19T03:41:28;6.60;;;4.47;;
71814;SDS011;59659;41.520;23.794;2022-08-19T03:42:55;8.23;;;5.33;;
71814;SDS011;59659;41.520;23.794;2022-08-19T03:44:07;10.83;;;5.20;;
71814;SDS011;59659;41.520;23.794;2022-08-19T03:45:26;6.20;;;4.40;;
71814;SDS011;59659;41.520;23.794;2022-08-19T03:46:39;6.23;;;4.40;;
71814;SDS011;59659;41.520;23.794;2022-08-19T03:47:54;6.30;;;4.50;;
71814;SDS011;59659;41.520;23.794;2022-08-19T03:49:06;6.87;;;5.30;;
71814;SDS011;59659;41.520;23.794;2022-08-19T03:50:20;6.20;;;5.30;;
71814;SDS011;59659;41.520;23.794;2022-08-19T03:51:33;14.87;;;7.50;;
71814;SDS011;59659;41.520;23.794;2022-08-19T03:52:49;12.87;;;7.00;;
71814;SDS011;59659;41.520;23.794;2022-08-19T03:54:03;10.33;;;6.67;;
71814;SDS011;59659;41.520;23.794;2022-08-19T03:55:14;13.27;;;7.90;;
71814;SDS011;59659;41.520;23.794;2022-08-19T03:56:26;17.93;;;9.63;;
71814;SDS011;59659;41.520;23.794;2022-08-19T03:57:39;16.80;;;8.03;;
71814;SDS011;59659;41.520;23.794;2022-08-19T03:58:50;12.77;;;6.80;;
71814;SDS011;59659;41.520;23.794;2022-08-19T04:00:03;19.60;;;7.63;;
71814;SDS011;59659;41.520;23.794;2022-08-19T04:01:25;11.83;;;7.57;;
71814;SDS011;59659;41.520;23.794;2022-08-19T04:02:45;12.60;;;7.17;;
71814;SDS011;59659;41.520;23.794;2022-08-19T04:04:11;15.10;;;7.37;;
71814;SDS011;59659;41.520;23.794;2022-08-19T04:05:23;18.07;;;7.77;;
71814;SDS011;59659;41.520;23.794;2022-08-19T04:06:38;9.83;;;6.47;;
71814;SDS011;59659;41.520;23.794;2022-08-19T04:07:50;11.27;;;7.67;;
71814;SDS011;59659;41.520;23.794;2022-08-19T04:09:03;11.27;;;7.30;;
71814;SDS011;59659;41.520;23.794;2022-08-19T04:10:14;9.87;;;6.37;;
71814;SDS011;59659;41.520;23.794;2022-08-19T04:11:27;11.60;;;7.77;;
71814;SDS011;59659;41.520;23.794;2022-08-19T04:12:54;13.23;;;8.07;;
71814;SDS011;59659;41.520;23.794;2022-08-19T04:14:06;11.33;;;7.90;;
71814;SDS011;59659;41.520;23.794;2022-08-19T04:15:17;14.00;;;8.37;;
71814;SDS011;59659;41.520;23.794;2022-08-19T04:16:29;13.07;;;8.07;;
71814;SDS011;59659;41.520;23.794;2022-08-19T04:17:45;9.83;;;7.00;;
71814;SDS011;59659;41.520;23.794;2022-08-19T04:18:59;11.97;;;7.67;;
71814;SDS011;59659;41.520;23.794;2022-08-19T04:20:11;11.43;;;7.87;;
71814;SDS011;59659;41.520;23.794;2022-08-19T04:21:24;13.23;;;7.43;;
71814;SDS011;59659;41.520;23.794;2022-08-19T04:22:35;15.77;;;7.80;;
71814;SDS011;59659;41.520;23.794;2022-08-19T04:23:47;13.47;;;8.17;;
71814;SDS011;59659;41.520;23.794;2022-08-19T04:24:59;11.87;;;8.03;;
71814;SDS011;59659;41.520;23.794;2022-08-19T04:26:13;13.20;;;7.80;;
71814;SDS011;59659;41.520;23.794;2022-08-19T04:27:25;11.27;;;7.07;;
71814;SDS011;59659;41.520;23.794;2022-08-19T04:28:37;11.47;;;7.23;;
71814;SDS011;59659;41.520;23.794;2022-08-19T04:29:49;11.00;;;7.77;;
71814;SDS011;59659;41.520;23.794;2022-08-19T04:31:00;15.40;;;8.60;;
71814;SDS011;59659;41.520;23.794;2022-08-19T04:32:12;13.20;;;7.77;;
71814;SDS011;59659;41.520;23.794;2022-08-19T04:33:26;14.93;;;8.30;;
71814;SDS011;59659;41.520;23.794;2022-08-19T04:34:39;13.63;;;8.60;;
71814;SDS011;59659;41.520;23.794;2022-08-19T04:36:18;12.77;;;7.47;;
71814;SDS011;59659;41.520;23.794;2022-08-19T04:37:31;13.07;;;8.33;;
71814;SDS011;59659;41.520;23.794;2022-08-19T04:38:45;19.47;;;8.43;;
71814;SDS011;59659;41.520;23.794;2022-08-19T04:39:57;14.43;;;8.40;;
71814;SDS011;59659;41.520;23.794;2022-08-19T04:41:27;17.27;;;8.47;;
71814;SDS011;59659;41.520;23.794;2022-08-19T04:42:57;20.43;;;8.60;;
71814;SDS011;59659;41.520;23.794;2022-08-19T04:44:08;14.03;;;8.10;;
71814;SDS011;59659;41.520;23.794;2022-08-19T04:45:22;13.37;;;8.20;;
71814;SDS011;59659;41.520;23.794;2022-08-19T04:46:34;14.57;;;8.37;;
71814;SDS011;59659;41.520;23.794;2022-08-19T04:48:01;19.73;;;8.83;;
71814;SDS011;59659;41.520;23.794;2022-08-19T04:49:33;11.70;;;7.67;;
71814;SDS011;59659;41.520;23.794;2022-08-19T04:50:45;12.10;;;7.80;;
71814;SDS011;59659;41.520;23.794;2022-08-19T04:51:56;11.97;;;7.30;;
71814;SDS011;59659;41.520;23.794;2022-08-19T04:53:10;10.93;;;7.37;;
71814;SDS011;59659;41.520;23.794;2022-08-19T04:54:23;11.60;;;6.80;;
71814;SDS011;59659;41.520;23.794;2022-08-19T04:55:49;11.63;;;7.67;;
71814;SDS011;59659;41.520;23.794;2022-08-19T04:57:00;11.30;;;7.57;;
71814;SDS011;59659;41.520;23.794;2022-08-19T04:58:12;12.07;;;7.70;;
71814;SDS011;59659;41.520;23.794;2022-08-19T04:59:23;15.73;;;7.90;;
71814;SDS011;59659;41.520;23.794;2022-08-19T05:00:37;12.10;;;8.20;;
71814;SDS011;59659;41.520;23.794;2022-08-19T05:01:51;9.83;;;7.00;;
71814;SDS011;59659;41.520;23.794;2022-08-19T05:03:02;10.30;;;7.27;;
71814;SDS011;59659;41.520;23.794;2022-08-19T05:04:18;10.63;;;7.10;;
71814;SDS011;59659;41.520;23.794;2022-08-19T05:05:31;12.50;;;7.57;;
71814;SDS011;59659;41.520;23.794;2022-08-19T05:06:55;9.30;;;7.13;;
71814;SDS011;59659;41.520;23.794;2022-08-19T05:08:12;12.37;;;8.13;;
71814;SDS011;59659;41.520;23.794;2022-08-19T05:09:25;10.53;;;7.37;;
71814;SDS011;59659;41.520;23.794;2022-08-19T05:10:38;18.23;;;8.73;;
71814;SDS011;59659;41.520;23.794;2022-08-19T05:11:50;12.60;;;7.97;;
71814;SDS011;59659;41.520;23.794;2022-08-19T05:13:04;10.87;;;7.53;;
71814;SDS011;59659;41.520;23.794;2022-08-19T05:14:16;14.73;;;8.73;;
71814;SDS011;59659;41.520;23.794;2022-08-19T05:15:27;13.03;;;7.57;;
71814;SDS011;59659;41.520;23.794;2022-08-19T05:16:39;10.80;;;8.10;;
71814;SDS011;59659;41.520;23.794;2022-08-19T05:17:51;10.53;;;6.93;;
71814;SDS011;59659;41.520;23.794;2022-08-19T05:19:21;13.07;;;7.03;;
71814;SDS011;59659;41.520;23.794;2022-08-19T05:20:51;13.57;;;7.10;;
71814;SDS011;59659;41.520;23.794;2022-08-19T05:22:21;8.97;;;6.40;;
71814;SDS011;59659;41.520;23.794;2022-08-19T05:23:48;8.80;;;6.87;;
71814;SDS011;59659;41.520;23.794;2022-08-19T05:25:02;9.63;;;6.03;;
71814;SDS011;59659;41.520;23.794;2022-08-19T05:26:24;9.60;;;6.70;;
71814;SDS011;59659;41.520;23.794;2022-08-19T05:27:37;13.53;;;7.40;;
71814;SDS011;59659;41.520;23.794;2022-08-19T05:28:48;11.83;;;7.00;;
71814;SDS011;59659;41.520;23.794;2022-08-19T05:30:05;8.50;;;6.30;;
71814;SDS011;59659;41.520;23.794;2022-08-19T05:31:16;12.43;;;6.57;;
71814;SDS011;59659;41.520;23.794;2022-08-19T05:32:28;10.70;;;7.00;;
71814;SDS011;59659;41.520;23.794;2022-08-19T05:33:39;9.97;;;6.00;;
71814;SDS011;59659;41.520;23.794;2022-08-19T05:34:51;11.27;;;7.20;;
71814;SDS011;59659;41.520;23.794;2022-08-19T05:36:02;10.33;;;6.47;;
71814;SDS011;59659;41.520;23.794;2022-08-19T05:37:14;11.73;;;7.37;;
71814;SDS011;59659;41.520;23.794;2022-08-19T05:38:26;11.27;;;7.40;;
71814;SDS011;59659;41.520;23.794;2022-08-19T05:39:38;10.77;;;7.50;;
71814;SDS011;59659;41.520;23.794;2022-08-19T05:40:50;8.73;;;6.70;;
71814;SDS011;59659;41.520;23.794;2022-08-19T05:42:04;12.80;;;7.07;;
71814;SDS011;59659;41.520;23.794;2022-08-19T05:43:18;11.67;;;6.93;;
71814;SDS011;59659;41.520;23.794;2022-08-19T05:44:30;11.17;;;6.80;;
71814;SDS011;59659;41.520;23.794;2022-08-19T05:45:43;11.43;;;6.57;;
71814;SDS011;59659;41.520;23.794;2022-08-19T05:46:55;11.87;;;7.53;;
71814;SDS011;59659;41.520;23.794;2022-08-19T05:48:06;10.07;;;7.07;;
71814;SDS011;59659;41.520;23.794;2022-08-19T05:49:18;11.37;;;6.87;;
71814;SDS011;59659;41.520;23.794;2022-08-19T05:50:30;9.67;;;7.33;;
71814;SDS011;59659;41.520;23.794;2022-08-19T05:51:42;12.00;;;7.23;;
71814;SDS011;59659;41.520;23.794;2022-08-19T05:52:53;9.43;;;6.47;;
71814;SDS011;59659;41.520;23.794;2022-08-19T05:54:05;9.47;;;6.40;;
71814;SDS011;59659;41.520;23.794;2022-08-19T05:55:18;17.87;;;7.13;;
71814;SDS011;59659;41.520;23.794;2022-08-19T05:56:31;9.83;;;5.87;;
71814;SDS011;59659;41.520;23.794;2022-08-19T05:57:43;15.50;;;7.27;;
71814;SDS011;59659;41.520;23.794;2022-08-19T05:58:54;11.27;;;6.33;;
71814;SDS011;59659;41.520;23.794;2022-08-19T06:00:08;18.90;;;11.03;;
71814;SDS011;59659;41.520;23.794;2022-08-19T06:01:22;15.37;;;9.67;;
71814;SDS011;59659;41.520;23.794;2022-08-19T06:02:33;14.47;;;7.57;;
71814;SDS011;59659;41.520;23.794;2022-08-19T06:03:46;11.80;;;7.80;;
71814;SDS011;59659;41.520;23.794;2022-08-19T06:04:58;12.87;;;7.13;;
71814;SDS011;59659;41.520;23.794;2022-08-19T06:06:11;12.60;;;7.93;;
71814;SDS011;59659;41.520;23.794;2022-08-19T06:07:23;18.83;;;9.90;;
71814;SDS011;59659;41.520;23.794;2022-08-19T06:08:35;11.70;;;7.70;;
71814;SDS011;59659;41.520;23.794;2022-08-19T06:09:48;9.73;;;6.87;;
71814;SDS011;59659;41.520;23.794;2022-08-19T06:11:21;13.57;;;7.87;;
71814;SDS011;59659;41.520;23.794;2022-08-19T06:12:33;24.77;;;12.30;;
71814;SDS011;59659;41.520;23.794;2022-08-19T06:13:46;14.37;;;9.20;;
71814;SDS011;59659;41.520;23.794;2022-08-19T06:15:11;21.27;;;11.87;;
71814;SDS011;59659;41.520;23.794;2022-08-19T06:16:22;18.00;;;10.70;;
71814;SDS011;59659;41.520;23.794;2022-08-19T06:17:34;15.93;;;10.10;;
71814;SDS011;59659;41.520;23.794;2022-08-19T06:18:46;13.03;;;7.63;;
71814;SDS011;59659;41.520;23.794;2022-08-19T06:19:58;12.57;;;7.60;;
71814;SDS011;59659;41.520;23.794;2022-08-19T06:21:10;13.30;;;8.27;;
71814;SDS011;59659;41.520;23.794;2022-08-19T06:22:21;16.10;;;7.83;;
71814;SDS011;59659;41.520;23.794;2022-08-19T06:23:33;11.83;;;7.67;;
71814;SDS011;59659;41.520;23.794;2022-08-19T06:24:45;14.03;;;7.73;;
71814;SDS011;59659;41.520;23.794;2022-08-19T06:25:56;12.23;;;7.37;;
71814;SDS011;59659;41.520;23.794;2022-08-19T06:27:08;10.60;;;6.67;;
71814;SDS011;59659;41.520;23.794;2022-08-19T06:28:20;8.37;;;6.40;;
71814;SDS011;59659;41.520;23.794;2022-08-19T06:29:32;9.47;;;6.73;;
71814;SDS011;59659;41.520;23.794;2022-08-19T06:30:45;10.57;;;6.53;;
71814;SDS011;59659;41.520;23.794;2022-08-19T06:31:57;11.83;;;6.43;;
71814;SDS011;59659;41.520;23.794;2022-08-19T06:33:09;11.13;;;6.73;;
71814;SDS011;59659;41.520;23.794;2022-08-19T06:34:21;15.80;;;6.73;;
71814;SDS011;59659;41.520;23.794;2022-08-19T06:35:32;9.30;;;6.70;;
71814;SDS011;59659;41.520;23.794;2022-08-19T06:36:45;11.33;;;6.23;;
71814;SDS011;59659;41.520;23.794;2022-08-19T06:37:57;9.10;;;6.37;;
71814;SDS011;59659;41.520;23.794;2022-08-19T06:39:10;9.43;;;6.10;;
71814;SDS011;59659;41.520;23.794;2022-08-19T06:40:22;11.57;;;6.80;;
71814;SDS011;59659;41.520;23.794;2022-08-19T06:41:34;14.53;;;8.80;;
71814;SDS011;59659;41.520;23.794;2022-08-19T06:42:51;35.00;;;17.63;;
71814;SDS011;59659;41.520;23.794;2022-08-19T06:44:06;17.17;;;9.80;;
71814;SDS011;59659;41.520;23.794;2022-08-19T06:45:23;12.87;;;7.87;;
71814;SDS011;59659;41.520;23.794;2022-08-19T06:46:45;13.03;;;7.83;;
71814;SDS011;59659;41.520;23.794;2022-08-19T06:48:05;12.13;;;7.57;;
71814;SDS011;59659;41.520;23.794;2022-08-19T06:49:17;12.13;;;7.47;;
71814;SDS011;59659;41.520;23.794;2022-08-19T06:50:29;9.53;;;5.93;;
71814;SDS011;59659;41.520;23.794;2022-08-19T06:51:41;8.00;;;6.33;;
71814;SDS011;59659;41.520;23.794;2022-08-19T06:52:54;9.27;;;5.87;;
71814;SDS011;59659;41.520;23.794;2022-08-19T06:54:06;9.93;;;6.30;;
71814;SDS011;59659;41.520;23.794;2022-08-19T06:55:29;9.10;;;6.10;;
71814;SDS011;59659;41.520;23.794;2022-08-19T06:56:43;7.23;;;5.67;;
71814;SDS011;59659;41.520;23.794;2022-08-19T06:57:57;10.93;;;5.60;;
71814;SDS011;59659;41.520;23.794;2022-08-19T06:59:12;7.27;;;5.77;;
71814;SDS011;59659;41.520;23.794;2022-08-19T07:00:25;8.13;;;5.63;;
71814;SDS011;59659;41.520;23.794;2022-08-19T07:01:38;9.33;;;6.87;;
71814;SDS011;59659;41.520;23.794;2022-08-19T07:02:49;14.60;;;6.90;;
71814;SDS011;59659;41.520;23.794;2022-08-19T07:04:09;10.37;;;6.57;;
71814;SDS011;59659;41.520;23.794;2022-08-19T07:05:22;10.10;;;6.20;;
71814;SDS011;59659;41.520;23.794;2022-08-19T07:06:34;15.90;;;6.97;;
71814;SDS011;59659;41.520;23.794;2022-08-19T07:07:54;8.47;;;6.00;;
71814;SDS011;59659;41.520;23.794;2022-08-19T07:09:17;8.30;;;6.00;;
71814;SDS011;59659;41.520;23.794;2022-08-19T07:10:31;9.83;;;5.67;;
71814;SDS011;59659;41.520;23.794;2022-08-19T07:11:45;10.23;;;5.47;;
71814;SDS011;59659;41.520;23.794;2022-08-19T07:12:57;12.37;;;6.23;;
71814;SDS011;59659;41.520;23.794;2022-08-19T07:14:08;10.20;;;6.53;;
71814;SDS011;59659;41.520;23.794;2022-08-19T07:15:29;6.80;;;4.93;;
71814;SDS011;59659;41.520;23.794;2022-08-19T07:16:42;8.57;;;5.80;;
71814;SDS011;59659;41.520;23.794;2022-08-19T07:17:53;20.70;;;6.00;;
71814;SDS011;59659;41.520;23.794;2022-08-19T07:19:05;6.63;;;4.90;;